Accueil
METAR-TAF:

METAR-TAF

Aéroports :

Hazleton, Pennsylvanie, États-Unis

latitude: 40-59-12N, longitude: 075-59-42W, altitude: 489 m

Observation

Le bulletin a été fait il y a 22 minutes, à 00:17 UTC
Vent 3 kt de sud-est
Température 25°C
Humidité 54%
Pression 1024 hPa
Visibilité: 16.1 km
Ciel clair

METAR: KHZL 160017Z AUTO 14003KT 10SM CLR 25/15 A3024 RMK AO2

Heure: 20:39 (00:39 UTC)


TAF: absent

Observations et prévisions météorologiques de plus de 4000 aéroports (messages METAR et TAF).

Les stations disponibles sont représentées par des disques jaunes et rouges sur la carte.

Passer la souris dessus pour voir le nom de la station.

Cliquer dessus pour voir les observations et prévisions météorologiques.

Pour changer de carte: cliquez sur les boutons verts avec une croix noire pour zoomer, sur le bouton vert avec un tiret pour effectuer un zoom arrière, ou sur les flèches vertes pour les cartes adjacentes.


METAR-TAF: